sensor_id;sensor_type;location;lat;lon;timestamp;P1;durP1;ratioP1;P2;durP2;ratioP2
73900;SDS011;62235;52.160;7.526;2023-07-29T00:01:30;8.65;;;4.00;;
73900;SDS011;62235;52.160;7.526;2023-07-29T00:03:56;5.18;;;3.67;;
73900;SDS011;62235;52.160;7.526;2023-07-29T00:06:21;5.63;;;3.80;;
73900;SDS011;62235;52.160;7.526;2023-07-29T00:08:46;8.20;;;4.87;;
73900;SDS011;62235;52.160;7.526;2023-07-29T00:11:12;8.20;;;4.03;;
73900;SDS011;62235;52.160;7.526;2023-07-29T00:13:37;8.90;;;6.00;;
73900;SDS011;62235;52.160;7.526;2023-07-29T00:16:02;5.57;;;4.13;;
73900;SDS011;62235;52.160;7.526;2023-07-29T00:18:28;8.02;;;4.90;;
73900;SDS011;62235;52.160;7.526;2023-07-29T00:20:53;7.18;;;4.10;;
73900;SDS011;62235;52.160;7.526;2023-07-29T00:23:18;7.33;;;4.47;;
73900;SDS011;62235;52.160;7.526;2023-07-29T00:25:44;5.93;;;3.97;;
73900;SDS011;62235;52.160;7.526;2023-07-29T00:28:11;5.72;;;3.85;;
73900;SDS011;62235;52.160;7.526;2023-07-29T00:30:37;6.75;;;4.20;;
73900;SDS011;62235;52.160;7.526;2023-07-29T00:33:02;5.00;;;4.00;;
73900;SDS011;62235;52.160;7.526;2023-07-29T00:35:27;5.95;;;3.90;;
73900;SDS011;62235;52.160;7.526;2023-07-29T00:37:52;6.23;;;3.87;;
73900;SDS011;62235;52.160;7.526;2023-07-29T00:40:21;4.47;;;3.50;;
73900;SDS011;62235;52.160;7.526;2023-07-29T00:42:47;5.03;;;3.33;;
73900;SDS011;62235;52.160;7.526;2023-07-29T00:45:13;4.93;;;3.45;;
73900;SDS011;62235;52.160;7.526;2023-07-29T00:47:39;4.97;;;3.47;;
73900;SDS011;62235;52.160;7.526;2023-07-29T00:50:05;5.22;;;3.00;;
73900;SDS011;62235;52.160;7.526;2023-07-29T00:52:31;4.30;;;3.20;;
73900;SDS011;62235;52.160;7.526;2023-07-29T00:54:56;5.53;;;3.10;;
73900;SDS011;62235;52.160;7.526;2023-07-29T00:57:22;4.70;;;3.15;;
73900;SDS011;62235;52.160;7.526;2023-07-29T00:59:50;5.68;;;3.30;;
73900;SDS011;62235;52.160;7.526;2023-07-29T01:02:15;5.35;;;3.22;;
73900;SDS011;62235;52.160;7.526;2023-07-29T01:04:41;5.90;;;3.13;;
73900;SDS011;62235;52.160;7.526;2023-07-29T01:07:11;3.70;;;3.08;;
73900;SDS011;62235;52.160;7.526;2023-07-29T01:09:49;5.97;;;3.72;;
73900;SDS011;62235;52.160;7.526;2023-07-29T01:15:11;5.18;;;3.38;;
73900;SDS011;62235;52.160;7.526;2023-07-29T01:17:40;4.90;;;3.75;;
73900;SDS011;62235;52.160;7.526;2023-07-29T01:20:08;6.40;;;3.45;;
73900;SDS011;62235;52.160;7.526;2023-07-29T01:22:35;6.88;;;3.70;;
73900;SDS011;62235;52.160;7.526;2023-07-29T01:25:02;4.63;;;3.50;;
73900;SDS011;62235;52.160;7.526;2023-07-29T01:27:27;4.60;;;3.60;;
73900;SDS011;62235;52.160;7.526;2023-07-29T01:29:53;6.90;;;4.00;;
73900;SDS011;62235;52.160;7.526;2023-07-29T01:32:23;5.18;;;4.03;;
73900;SDS011;62235;52.160;7.526;2023-07-29T01:35:12;6.07;;;4.30;;
73900;SDS011;62235;52.160;7.526;2023-07-29T01:37:42;8.07;;;4.03;;
73900;SDS011;62235;52.160;7.526;2023-07-29T01:40:09;6.40;;;4.22;;
73900;SDS011;62235;52.160;7.526;2023-07-29T01:42:35;5.80;;;4.38;;
73900;SDS011;62235;52.160;7.526;2023-07-29T01:45:01;6.18;;;4.03;;
73900;SDS011;62235;52.160;7.526;2023-07-29T01:47:26;5.53;;;4.20;;
73900;SDS011;62235;52.160;7.526;2023-07-29T01:49:51;9.30;;;4.53;;
73900;SDS011;62235;52.160;7.526;2023-07-29T01:52:17;6.60;;;5.10;;
73900;SDS011;62235;52.160;7.526;2023-07-29T01:54:42;5.33;;;4.00;;
73900;SDS011;62235;52.160;7.526;2023-07-29T01:57:07;6.00;;;4.47;;
73900;SDS011;62235;52.160;7.526;2023-07-29T01:59:33;6.65;;;4.80;;
73900;SDS011;62235;52.160;7.526;2023-07-29T02:01:58;7.47;;;4.47;;
73900;SDS011;62235;52.160;7.526;2023-07-29T02:04:23;6.40;;;4.23;;
73900;SDS011;62235;52.160;7.526;2023-07-29T02:06:49;6.07;;;4.77;;
73900;SDS011;62235;52.160;7.526;2023-07-29T02:09:14;5.68;;;4.63;;
73900;SDS011;62235;52.160;7.526;2023-07-29T02:11:39;6.00;;;4.63;;
73900;SDS011;62235;52.160;7.526;2023-07-29T02:14:05;8.57;;;5.20;;
73900;SDS011;62235;52.160;7.526;2023-07-29T02:16:30;8.25;;;5.03;;
73900;SDS011;62235;52.160;7.526;2023-07-29T02:18:57;11.30;;;5.60;;
73900;SDS011;62235;52.160;7.526;2023-07-29T02:21:22;6.47;;;4.43;;
73900;SDS011;62235;52.160;7.526;2023-07-29T02:23:48;6.43;;;4.10;;
73900;SDS011;62235;52.160;7.526;2023-07-29T02:26:13;7.03;;;4.80;;
73900;SDS011;62235;52.160;7.526;2023-07-29T02:28:38;6.20;;;4.40;;
73900;SDS011;62235;52.160;7.526;2023-07-29T02:31:17;6.50;;;4.72;;
73900;SDS011;62235;52.160;7.526;2023-07-29T02:33:45;6.20;;;4.53;;
73900;SDS011;62235;52.160;7.526;2023-07-29T02:36:11;7.90;;;5.03;;
73900;SDS011;62235;52.160;7.526;2023-07-29T02:38:37;8.00;;;5.32;;
73900;SDS011;62235;52.160;7.526;2023-07-29T02:41:03;7.65;;;5.40;;
73900;SDS011;62235;52.160;7.526;2023-07-29T02:43:28;7.33;;;5.27;;
73900;SDS011;62235;52.160;7.526;2023-07-29T02:45:53;9.40;;;5.53;;
73900;SDS011;62235;52.160;7.526;2023-07-29T02:48:19;8.63;;;6.00;;
73900;SDS011;62235;52.160;7.526;2023-07-29T02:50:44;9.07;;;6.03;;
73900;SDS011;62235;52.160;7.526;2023-07-29T02:53:09;7.68;;;5.28;;
73900;SDS011;62235;52.160;7.526;2023-07-29T02:55:35;6.90;;;5.23;;
73900;SDS011;62235;52.160;7.526;2023-07-29T02:58:00;9.10;;;5.80;;
73900;SDS011;62235;52.160;7.526;2023-07-29T03:00:25;11.07;;;5.82;;
73900;SDS011;62235;52.160;7.526;2023-07-29T03:02:51;10.95;;;6.30;;
73900;SDS011;62235;52.160;7.526;2023-07-29T03:05:16;7.70;;;5.47;;
73900;SDS011;62235;52.160;7.526;2023-07-29T03:07:41;7.07;;;5.60;;
73900;SDS011;62235;52.160;7.526;2023-07-29T03:10:07;9.10;;;6.13;;
73900;SDS011;62235;52.160;7.526;2023-07-29T03:12:33;10.20;;;6.63;;
73900;SDS011;62235;52.160;7.526;2023-07-29T03:14:58;9.65;;;6.95;;
73900;SDS011;62235;52.160;7.526;2023-07-29T03:17:25;11.00;;;7.35;;
73900;SDS011;62235;52.160;7.526;2023-07-29T03:19:51;8.73;;;5.70;;
73900;SDS011;62235;52.160;7.526;2023-07-29T03:22:17;12.52;;;6.63;;
73900;SDS011;62235;52.160;7.526;2023-07-29T03:24:42;9.70;;;6.07;;
73900;SDS011;62235;52.160;7.526;2023-07-29T03:27:07;10.38;;;7.15;;
73900;SDS011;62235;52.160;7.526;2023-07-29T03:29:34;11.77;;;6.88;;
73900;SDS011;62235;52.160;7.526;2023-07-29T03:32:00;14.07;;;7.65;;
73900;SDS011;62235;52.160;7.526;2023-07-29T03:34:25;10.93;;;6.73;;
73900;SDS011;62235;52.160;7.526;2023-07-29T03:36:51;9.40;;;6.17;;
73900;SDS011;62235;52.160;7.526;2023-07-29T03:39:16;10.30;;;6.95;;
73900;SDS011;62235;52.160;7.526;2023-07-29T03:41:42;10.60;;;6.90;;
73900;SDS011;62235;52.160;7.526;2023-07-29T03:44:07;9.30;;;6.22;;
73900;SDS011;62235;52.160;7.526;2023-07-29T03:46:32;11.75;;;7.60;;
73900;SDS011;62235;52.160;7.526;2023-07-29T03:48:58;9.95;;;6.93;;
73900;SDS011;62235;52.160;7.526;2023-07-29T03:51:23;12.48;;;7.13;;
73900;SDS011;62235;52.160;7.526;2023-07-29T03:53:49;9.68;;;7.60;;
73900;SDS011;62235;52.160;7.526;2023-07-29T03:56:15;11.25;;;7.53;;
73900;SDS011;62235;52.160;7.526;2023-07-29T03:58:40;10.85;;;7.72;;
73900;SDS011;62235;52.160;7.526;2023-07-29T04:01:06;10.57;;;7.77;;
73900;SDS011;62235;52.160;7.526;2023-07-29T04:03:32;9.20;;;6.85;;
73900;SDS011;62235;52.160;7.526;2023-07-29T04:05:58;10.80;;;7.03;;
73900;SDS011;62235;52.160;7.526;2023-07-29T04:08:24;10.68;;;7.93;;
73900;SDS011;62235;52.160;7.526;2023-07-29T04:10:49;12.73;;;8.13;;
73900;SDS011;62235;52.160;7.526;2023-07-29T04:13:14;11.80;;;7.10;;
73900;SDS011;62235;52.160;7.526;2023-07-29T04:15:40;10.30;;;6.97;;
73900;SDS011;62235;52.160;7.526;2023-07-29T04:18:05;10.18;;;7.45;;
73900;SDS011;62235;52.160;7.526;2023-07-29T04:20:30;10.93;;;7.70;;
73900;SDS011;62235;52.160;7.526;2023-07-29T04:22:56;13.05;;;8.68;;
73900;SDS011;62235;52.160;7.526;2023-07-29T04:25:21;12.77;;;8.27;;
73900;SDS011;62235;52.160;7.526;2023-07-29T04:27:47;12.27;;;9.10;;
73900;SDS011;62235;52.160;7.526;2023-07-29T04:30:12;11.35;;;8.27;;
73900;SDS011;62235;52.160;7.526;2023-07-29T04:32:37;12.90;;;8.80;;
73900;SDS011;62235;52.160;7.526;2023-07-29T04:35:03;14.18;;;9.25;;
73900;SDS011;62235;52.160;7.526;2023-07-29T04:37:28;17.35;;;9.68;;
73900;SDS011;62235;52.160;7.526;2023-07-29T04:39:54;16.97;;;10.23;;
73900;SDS011;62235;52.160;7.526;2023-07-29T04:42:19;16.70;;;10.60;;
73900;SDS011;62235;52.160;7.526;2023-07-29T04:44:44;15.63;;;9.97;;
73900;SDS011;62235;52.160;7.526;2023-07-29T04:47:10;13.80;;;10.13;;
73900;SDS011;62235;52.160;7.526;2023-07-29T04:49:35;13.77;;;9.30;;
73900;SDS011;62235;52.160;7.526;2023-07-29T04:52:00;14.43;;;10.57;;
73900;SDS011;62235;52.160;7.526;2023-07-29T04:54:25;13.63;;;9.70;;
73900;SDS011;62235;52.160;7.526;2023-07-29T04:56:51;14.80;;;10.17;;
73900;SDS011;62235;52.160;7.526;2023-07-29T04:59:16;16.75;;;10.20;;
73900;SDS011;62235;52.160;7.526;2023-07-29T05:01:42;16.23;;;10.20;;
73900;SDS011;62235;52.160;7.526;2023-07-29T05:04:08;15.15;;;10.85;;
73900;SDS011;62235;52.160;7.526;2023-07-29T05:06:33;14.60;;;10.00;;
73900;SDS011;62235;52.160;7.526;2023-07-29T05:08:59;14.53;;;9.77;;
73900;SDS011;62235;52.160;7.526;2023-07-29T05:11:24;18.20;;;11.65;;
73900;SDS011;62235;52.160;7.526;2023-07-29T05:13:50;14.55;;;9.70;;
73900;SDS011;62235;52.160;7.526;2023-07-29T05:16:16;15.15;;;9.98;;
73900;SDS011;62235;52.160;7.526;2023-07-29T05:18:41;14.27;;;9.60;;
73900;SDS011;62235;52.160;7.526;2023-07-29T05:21:06;13.07;;;9.17;;
73900;SDS011;62235;52.160;7.526;2023-07-29T05:23:33;15.73;;;9.95;;
73900;SDS011;62235;52.160;7.526;2023-07-29T05:25:58;14.57;;;9.50;;
73900;SDS011;62235;52.160;7.526;2023-07-29T05:28:24;14.38;;;9.90;;
73900;SDS011;62235;52.160;7.526;2023-07-29T05:30:49;15.20;;;10.32;;
73900;SDS011;62235;52.160;7.526;2023-07-29T05:33:14;13.75;;;9.90;;
73900;SDS011;62235;52.160;7.526;2023-07-29T05:35:40;13.75;;;10.65;;
73900;SDS011;62235;52.160;7.526;2023-07-29T05:38:05;17.53;;;10.33;;
73900;SDS011;62235;52.160;7.526;2023-07-29T05:40:33;14.85;;;10.50;;
73900;SDS011;62235;52.160;7.526;2023-07-29T05:42:58;14.95;;;9.57;;
73900;SDS011;62235;52.160;7.526;2023-07-29T05:45:24;15.63;;;9.10;;
73900;SDS011;62235;52.160;7.526;2023-07-29T05:47:50;13.35;;;9.65;;
73900;SDS011;62235;52.160;7.526;2023-07-29T05:50:15;15.18;;;9.77;;
73900;SDS011;62235;52.160;7.526;2023-07-29T05:52:41;15.05;;;10.63;;
73900;SDS011;62235;52.160;7.526;2023-07-29T05:55:06;14.35;;;9.95;;
73900;SDS011;62235;52.160;7.526;2023-07-29T05:57:32;13.93;;;9.65;;
73900;SDS011;62235;52.160;7.526;2023-07-29T05:59:57;15.83;;;8.83;;
73900;SDS011;62235;52.160;7.526;2023-07-29T06:02:22;15.10;;;9.17;;
73900;SDS011;62235;52.160;7.526;2023-07-29T06:04:48;14.63;;;9.65;;
73900;SDS011;62235;52.160;7.526;2023-07-29T06:07:13;14.50;;;9.83;;
73900;SDS011;62235;52.160;7.526;2023-07-29T06:09:39;15.75;;;10.68;;
73900;SDS011;62235;52.160;7.526;2023-07-29T06:12:05;16.42;;;10.00;;
73900;SDS011;62235;52.160;7.526;2023-07-29T06:14:30;15.18;;;10.85;;
73900;SDS011;62235;52.160;7.526;2023-07-29T06:16:56;13.67;;;9.07;;
73900;SDS011;62235;52.160;7.526;2023-07-29T06:19:21;14.33;;;9.20;;
73900;SDS011;62235;52.160;7.526;2023-07-29T06:21:46;13.50;;;9.35;;
73900;SDS011;62235;52.160;7.526;2023-07-29T06:24:12;14.87;;;10.27;;
73900;SDS011;62235;52.160;7.526;2023-07-29T06:26:37;15.25;;;10.35;;
73900;SDS011;62235;52.160;7.526;2023-07-29T06:29:03;11.55;;;8.95;;
73900;SDS011;62235;52.160;7.526;2023-07-29T06:31:29;14.20;;;8.60;;
73900;SDS011;62235;52.160;7.526;2023-07-29T06:33:54;11.82;;;8.20;;
73900;SDS011;62235;52.160;7.526;2023-07-29T06:36:20;13.40;;;8.63;;
73900;SDS011;62235;52.160;7.526;2023-07-29T06:38:45;10.97;;;7.60;;
73900;SDS011;62235;52.160;7.526;2023-07-29T06:41:10;13.57;;;8.53;;
73900;SDS011;62235;52.160;7.526;2023-07-29T06:43:36;12.65;;;8.50;;
73900;SDS011;62235;52.160;7.526;2023-07-29T06:46:01;10.47;;;7.57;;
73900;SDS011;62235;52.160;7.526;2023-07-29T06:48:26;9.38;;;6.65;;
73900;SDS011;62235;52.160;7.526;2023-07-29T06:50:52;8.02;;;3.80;;
73900;SDS011;62235;52.160;7.526;2023-07-29T06:53:17;9.47;;;6.20;;
73900;SDS011;62235;52.160;7.526;2023-07-29T06:55:43;5.87;;;3.23;;
73900;SDS011;62235;52.160;7.526;2023-07-29T06:58:09;5.15;;;2.95;;
73900;SDS011;62235;52.160;7.526;2023-07-29T07:00:34;5.13;;;3.33;;
73900;SDS011;62235;52.160;7.526;2023-07-29T07:03:00;3.88;;;3.20;;
73900;SDS011;62235;52.160;7.526;2023-07-29T07:05:25;4.47;;;2.90;;
73900;SDS011;62235;52.160;7.526;2023-07-29T07:07:50;9.63;;;3.80;;
73900;SDS011;62235;52.160;7.526;2023-07-29T07:10:16;4.73;;;1.80;;
73900;SDS011;62235;52.160;7.526;2023-07-29T07:12:41;2.83;;;1.77;;
73900;SDS011;62235;52.160;7.526;2023-07-29T07:15:06;3.67;;;2.10;;
73900;SDS011;62235;52.160;7.526;2023-07-29T07:17:32;5.35;;;1.95;;
73900;SDS011;62235;52.160;7.526;2023-07-29T07:19:58;2.60;;;1.70;;
73900;SDS011;62235;52.160;7.526;2023-07-29T07:22:23;1.52;;;1.27;;
73900;SDS011;62235;52.160;7.526;2023-07-29T07:24:48;4.32;;;1.70;;
73900;SDS011;62235;52.160;7.526;2023-07-29T07:27:14;6.70;;;1.70;;
73900;SDS011;62235;52.160;7.526;2023-07-29T07:29:39;2.47;;;1.47;;
73900;SDS011;62235;52.160;7.526;2023-07-29T07:32:04;5.45;;;1.60;;
73900;SDS011;62235;52.160;7.526;2023-07-29T07:34:30;3.00;;;1.55;;
73900;SDS011;62235;52.160;7.526;2023-07-29T07:36:55;2.20;;;1.13;;
73900;SDS011;62235;52.160;7.526;2023-07-29T07:39:21;1.50;;;1.08;;
73900;SDS011;62235;52.160;7.526;2023-07-29T07:41:46;2.33;;;1.13;;
73900;SDS011;62235;52.160;7.526;2023-07-29T07:44:12;2.35;;;1.35;;
73900;SDS011;62235;52.160;7.526;2023-07-29T07:46:40;1.15;;;0.75;;
73900;SDS011;62235;52.160;7.526;2023-07-29T07:49:06;2.00;;;1.38;;
73900;SDS011;62235;52.160;7.526;2023-07-29T07:51:31;3.23;;;1.70;;
73900;SDS011;62235;52.160;7.526;2023-07-29T07:53:56;2.17;;;1.40;;
73900;SDS011;62235;52.160;7.526;2023-07-29T07:56:21;3.33;;;1.30;;
73900;SDS011;62235;52.160;7.526;2023-07-29T07:58:47;1.93;;;0.83;;
73900;SDS011;62235;52.160;7.526;2023-07-29T08:01:12;1.50;;;0.75;;
73900;SDS011;62235;52.160;7.526;2023-07-29T08:03:38;2.73;;;1.30;;
73900;SDS011;62235;52.160;7.526;2023-07-29T08:06:04;3.88;;;1.90;;
73900;SDS011;62235;52.160;7.526;2023-07-29T08:08:29;4.65;;;1.13;;
73900;SDS011;62235;52.160;7.526;2023-07-29T08:10:55;2.00;;;1.07;;
73900;SDS011;62235;52.160;7.526;2023-07-29T08:13:21;3.17;;;1.50;;
73900;SDS011;62235;52.160;7.526;2023-07-29T08:15:48;2.83;;;1.77;;
73900;SDS011;62235;52.160;7.526;2023-07-29T08:18:13;3.08;;;1.60;;
73900;SDS011;62235;52.160;7.526;2023-07-29T08:20:39;3.03;;;1.73;;
73900;SDS011;62235;52.160;7.526;2023-07-29T08:23:04;1.93;;;1.40;;
73900;SDS011;62235;52.160;7.526;2023-07-29T08:25:29;2.73;;;1.20;;
73900;SDS011;62235;52.160;7.526;2023-07-29T08:27:55;2.40;;;1.48;;
73900;SDS011;62235;52.160;7.526;2023-07-29T08:30:20;2.05;;;1.23;;
73900;SDS011;62235;52.160;7.526;2023-07-29T08:32:46;2.30;;;1.00;;
73900;SDS011;62235;52.160;7.526;2023-07-29T08:35:11;2.13;;;1.20;;
73900;SDS011;62235;52.160;7.526;2023-07-29T08:37:37;2.25;;;1.00;;
73900;SDS011;62235;52.160;7.526;2023-07-29T08:40:02;6.67;;;2.00;;
73900;SDS011;62235;52.160;7.526;2023-07-29T08:42:29;14.05;;;2.67;;
73900;SDS011;62235;52.160;7.526;2023-07-29T08:44:56;2.55;;;1.23;;
73900;SDS011;62235;52.160;7.526;2023-07-29T08:47:21;3.80;;;1.63;;
73900;SDS011;62235;52.160;7.526;2023-07-29T08:49:47;29.65;;;4.10;;
73900;SDS011;62235;52.160;7.526;2023-07-29T08:52:13;4.10;;;1.30;;
73900;SDS011;62235;52.160;7.526;2023-07-29T08:54:39;2.22;;;1.20;;
73900;SDS011;62235;52.160;7.526;2023-07-29T08:57:05;2.28;;;1.00;;
73900;SDS011;62235;52.160;7.526;2023-07-29T08:59:31;3.30;;;1.30;;
73900;SDS011;62235;52.160;7.526;2023-07-29T09:01:56;1.90;;;1.10;;
73900;SDS011;62235;52.160;7.526;2023-07-29T09:04:22;1.20;;;1.00;;
73900;SDS011;62235;52.160;7.526;2023-07-29T09:06:49;2.33;;;1.10;;
73900;SDS011;62235;52.160;7.526;2023-07-29T09:09:15;1.45;;;0.95;;
73900;SDS011;62235;52.160;7.526;2023-07-29T09:11:40;1.70;;;1.10;;
73900;SDS011;62235;52.160;7.526;2023-07-29T09:14:05;1.90;;;1.20;;
73900;SDS011;62235;52.160;7.526;2023-07-29T09:16:31;1.20;;;1.00;;
73900;SDS011;62235;52.160;7.526;2023-07-29T09:18:56;2.40;;;1.30;;
73900;SDS011;62235;52.160;7.526;2023-07-29T09:21:26;2.92;;;1.08;;
73900;SDS011;62235;52.160;7.526;2023-07-29T09:23:53;1.08;;;0.40;;
73900;SDS011;62235;52.160;7.526;2023-07-29T09:26:25;2.05;;;1.17;;
73900;SDS011;62235;52.160;7.526;2023-07-29T09:28:52;2.78;;;0.65;;
73900;SDS011;62235;52.160;7.526;2023-07-29T09:31:22;4.07;;;0.90;;
73900;SDS011;62235;52.160;7.526;2023-07-29T09:33:48;1.38;;;0.80;;
73900;SDS011;62235;52.160;7.526;2023-07-29T09:36:13;1.20;;;0.90;;
73900;SDS011;62235;52.160;7.526;2023-07-29T09:38:39;1.88;;;0.68;;
73900;SDS011;62235;52.160;7.526;2023-07-29T09:41:04;1.20;;;0.95;;
73900;SDS011;62235;52.160;7.526;2023-07-29T09:43:30;1.23;;;0.95;;
73900;SDS011;62235;52.160;7.526;2023-07-29T09:46:00;1.02;;;0.77;;
73900;SDS011;62235;52.160;7.526;2023-07-29T09:48:26;1.15;;;0.70;;
73900;SDS011;62235;52.160;7.526;2023-07-29T09:50:53;1.55;;;0.75;;
73900;SDS011;62235;52.160;7.526;2023-07-29T09:53:18;1.20;;;0.60;;
73900;SDS011;62235;52.160;7.526;2023-07-29T09:55:47;1.25;;;0.60;;
73900;SDS011;62235;52.160;7.526;2023-07-29T09:58:19;2.80;;;1.30;;
73900;SDS011;62235;52.160;7.526;2023-07-29T10:00:51;2.28;;;0.70;;
73900;SDS011;62235;52.160;7.526;2023-07-29T10:03:17;1.45;;;0.88;;
73900;SDS011;62235;52.160;7.526;2023-07-29T10:05:44;4.93;;;0.80;;
73900;SDS011;62235;52.160;7.526;2023-07-29T10:08:10;1.30;;;0.70;;
73900;SDS011;62235;52.160;7.526;2023-07-29T10:10:35;1.02;;;0.60;;
73900;SDS011;62235;52.160;7.526;2023-07-29T10:13:01;1.20;;;0.80;;
73900;SDS011;62235;52.160;7.526;2023-07-29T10:15:26;0.93;;;0.60;;
73900;SDS011;62235;52.160;7.526;2023-07-29T10:17:52;1.00;;;0.90;;
73900;SDS011;62235;52.160;7.526;2023-07-29T10:20:18;1.30;;;0.57;;
73900;SDS011;62235;52.160;7.526;2023-07-29T10:22:45;0.80;;;0.60;;
73900;SDS011;62235;52.160;7.526;2023-07-29T10:28:07;1.30;;;0.70;;
73900;SDS011;62235;52.160;7.526;2023-07-29T10:30:33;6.90;;;0.70;;
73900;SDS011;62235;52.160;7.526;2023-07-29T10:32:59;1.45;;;0.60;;
73900;SDS011;62235;52.160;7.526;2023-07-29T10:35:27;1.48;;;0.77;;
73900;SDS011;62235;52.160;7.526;2023-07-29T10:37:53;0.82;;;0.70;;
73900;SDS011;62235;52.160;7.526;2023-07-29T10:40:20;1.42;;;0.45;;
73900;SDS011;62235;52.160;7.526;2023-07-29T10:45:55;1.30;;;0.88;;
73900;SDS011;62235;52.160;7.526;2023-07-29T10:51:21;1.63;;;0.75;;
73900;SDS011;62235;52.160;7.526;2023-07-29T10:53:55;2.03;;;1.00;;
73900;SDS011;62235;52.160;7.526;2023-07-29T10:56:28;1.05;;;0.80;;
73900;SDS011;62235;52.160;7.526;2023-07-29T10:58:54;2.10;;;1.10;;
73900;SDS011;62235;52.160;7.526;2023-07-29T11:01:31;1.40;;;0.90;;
73900;SDS011;62235;52.160;7.526;2023-07-29T11:04:45;2.13;;;0.90;;
73900;SDS011;62235;52.160;7.526;2023-07-29T11:07:01;17.42;;;1.50;;
73900;SDS011;62235;52.160;7.526;2023-07-29T11:09:42;2.08;;;1.10;;
73900;SDS011;62235;52.160;7.526;2023-07-29T11:15:11;1.95;;;1.00;;
73900;SDS011;62235;52.160;7.526;2023-07-29T11:17:39;0.98;;;0.75;;
73900;SDS011;62235;52.160;7.526;2023-07-29T11:20:14;1.40;;;0.90;;
73900;SDS011;62235;52.160;7.526;2023-07-29T11:22:40;1.02;;;0.90;;
73900;SDS011;62235;52.160;7.526;2023-07-29T11:25:09;1.55;;;1.15;;
73900;SDS011;62235;52.160;7.526;2023-07-29T11:27:36;1.83;;;1.33;;
73900;SDS011;62235;52.160;7.526;2023-07-29T11:30:03;1.92;;;1.10;;
73900;SDS011;62235;52.160;7.526;2023-07-29T11:32:30;1.58;;;1.33;;
73900;SDS011;62235;52.160;7.526;2023-07-29T11:34:56;1.67;;;1.10;;
73900;SDS011;62235;52.160;7.526;2023-07-29T11:37:22;0.98;;;0.85;;
73900;SDS011;62235;52.160;7.526;2023-07-29T11:39:47;1.10;;;1.00;;
73900;SDS011;62235;52.160;7.526;2023-07-29T11:42:13;0.65;;;0.57;;
73900;SDS011;62235;52.160;7.526;2023-07-29T11:44:39;2.92;;;0.60;;
73900;SDS011;62235;52.160;7.526;2023-07-29T11:47:07;1.30;;;1.00;;
73900;SDS011;62235;52.160;7.526;2023-07-29T11:49:33;2.28;;;1.10;;
73900;SDS011;62235;52.160;7.526;2023-07-29T11:51:59;1.67;;;1.00;;
73900;SDS011;62235;52.160;7.526;2023-07-29T11:54:25;3.17;;;1.45;;
73900;SDS011;62235;52.160;7.526;2023-07-29T11:56:50;1.45;;;0.98;;
73900;SDS011;62235;52.160;7.526;2023-07-29T11:59:16;1.80;;;0.73;;
73900;SDS011;62235;52.160;7.526;2023-07-29T12:01:41;3.17;;;1.00;;
73900;SDS011;62235;52.160;7.526;2023-07-29T12:04:07;1.90;;;1.20;;
73900;SDS011;62235;52.160;7.526;2023-07-29T12:06:32;1.30;;;1.00;;
73900;SDS011;62235;52.160;7.526;2023-07-29T12:08:58;1.70;;;1.00;;
73900;SDS011;62235;52.160;7.526;2023-07-29T12:11:23;2.38;;;1.10;;
73900;SDS011;62235;52.160;7.526;2023-07-29T12:13:49;1.50;;;1.13;;
73900;SDS011;62235;52.160;7.526;2023-07-29T12:16:17;2.35;;;1.20;;
73900;SDS011;62235;52.160;7.526;2023-07-29T12:18:43;2.67;;;1.02;;
73900;SDS011;62235;52.160;7.526;2023-07-29T12:21:08;1.87;;;0.97;;
73900;SDS011;62235;52.160;7.526;2023-07-29T12:23:33;1.23;;;1.10;;
73900;SDS011;62235;52.160;7.526;2023-07-29T12:25:59;2.07;;;1.30;;
73900;SDS011;62235;52.160;7.526;2023-07-29T12:28:28;2.35;;;0.80;;
73900;SDS011;62235;52.160;7.526;2023-07-29T12:30:54;0.90;;;0.68;;
73900;SDS011;62235;52.160;7.526;2023-07-29T12:33:35;2.25;;;1.33;;
73900;SDS011;62235;52.160;7.526;2023-07-29T12:36:01;2.65;;;1.33;;
73900;SDS011;62235;52.160;7.526;2023-07-29T12:38:27;1.75;;;1.00;;
73900;SDS011;62235;52.160;7.526;2023-07-29T12:40:53;1.90;;;1.10;;
73900;SDS011;62235;52.160;7.526;2023-07-29T12:43:19;1.63;;;1.27;;
73900;SDS011;62235;52.160;7.526;2023-07-29T12:45:44;2.05;;;1.13;;
73900;SDS011;62235;52.160;7.526;2023-07-29T12:48:10;1.45;;;1.08;;
73900;SDS011;62235;52.160;7.526;2023-07-29T12:50:36;2.13;;;1.30;;
73900;SDS011;62235;52.160;7.526;2023-07-29T12:53:02;2.47;;;1.30;;
73900;SDS011;62235;52.160;7.526;2023-07-29T12:55:27;1.50;;;1.40;;
73900;SDS011;62235;52.160;7.526;2023-07-29T12:57:52;2.17;;;1.30;;
73900;SDS011;62235;52.160;7.526;2023-07-29T13:00:18;1.83;;;1.40;;
73900;SDS011;62235;52.160;7.526;2023-07-29T13:02:43;1.88;;;1.52;;
73900;SDS011;62235;52.160;7.526;2023-07-29T13:05:09;3.67;;;1.50;;
73900;SDS011;62235;52.160;7.526;2023-07-29T13:07:36;1.33;;;1.23;;
73900;SDS011;62235;52.160;7.526;2023-07-29T13:10:02;2.10;;;1.20;;
73900;SDS011;62235;52.160;7.526;2023-07-29T13:12:28;1.85;;;1.40;;
73900;SDS011;62235;52.160;7.526;2023-07-29T13:14:53;2.00;;;1.50;;
73900;SDS011;62235;52.160;7.526;2023-07-29T13:17:18;1.77;;;1.40;;
73900;SDS011;62235;52.160;7.526;2023-07-29T13:19:44;1.50;;;1.27;;
73900;SDS011;62235;52.160;7.526;2023-07-29T13:22:09;2.10;;;1.53;;
73900;SDS011;62235;52.160;7.526;2023-07-29T13:24:34;1.80;;;1.50;;
73900;SDS011;62235;52.160;7.526;2023-07-29T13:27:00;2.22;;;1.50;;
73900;SDS011;62235;52.160;7.526;2023-07-29T13:29:25;1.27;;;1.17;;
73900;SDS011;62235;52.160;7.526;2023-07-29T13:31:50;2.28;;;1.40;;
73900;SDS011;62235;52.160;7.526;2023-07-29T13:34:16;2.67;;;1.42;;
73900;SDS011;62235;52.160;7.526;2023-07-29T13:36:41;1.47;;;1.30;;
73900;SDS011;62235;52.160;7.526;2023-07-29T13:39:06;3.33;;;1.35;;
73900;SDS011;62235;52.160;7.526;2023-07-29T13:41:32;1.70;;;1.00;;
73900;SDS011;62235;52.160;7.526;2023-07-29T13:43:57;1.77;;;1.40;;
73900;SDS011;62235;52.160;7.526;2023-07-29T13:46:22;1.87;;;1.43;;
73900;SDS011;62235;52.160;7.526;2023-07-29T13:48:48;1.17;;;0.97;;
73900;SDS011;62235;52.160;7.526;2023-07-29T13:51:13;0.90;;;0.67;;
73900;SDS011;62235;52.160;7.526;2023-07-29T13:53:38;1.43;;;1.30;;
73900;SDS011;62235;52.160;7.526;2023-07-29T13:56:04;1.95;;;1.30;;
73900;SDS011;62235;52.160;7.526;2023-07-29T13:58:29;1.58;;;1.10;;
73900;SDS011;62235;52.160;7.526;2023-07-29T14:00:55;1.42;;;1.00;;
73900;SDS011;62235;52.160;7.526;2023-07-29T14:03:20;2.73;;;1.40;;
73900;SDS011;62235;52.160;7.526;2023-07-29T14:05:47;1.42;;;1.10;;
73900;SDS011;62235;52.160;7.526;2023-07-29T14:08:12;2.10;;;1.30;;
73900;SDS011;62235;52.160;7.526;2023-07-29T14:10:37;4.63;;;1.35;;
73900;SDS011;62235;52.160;7.526;2023-07-29T14:13:03;1.90;;;1.30;;
73900;SDS011;62235;52.160;7.526;2023-07-29T14:15:28;2.90;;;1.70;;
73900;SDS011;62235;52.160;7.526;2023-07-29T14:17:54;1.58;;;1.20;;
73900;SDS011;62235;52.160;7.526;2023-07-29T14:20:19;1.90;;;1.38;;
73900;SDS011;62235;52.160;7.526;2023-07-29T14:22:44;2.58;;;1.15;;
73900;SDS011;62235;52.160;7.526;2023-07-29T14:25:10;2.20;;;1.20;;
73900;SDS011;62235;52.160;7.526;2023-07-29T14:27:35;1.60;;;1.23;;
73900;SDS011;62235;52.160;7.526;2023-07-29T14:30:01;2.85;;;1.00;;
73900;SDS011;62235;52.160;7.526;2023-07-29T14:32:27;1.38;;;0.98;;
73900;SDS011;62235;52.160;7.526;2023-07-29T14:34:52;1.52;;;0.77;;
73900;SDS011;62235;52.160;7.526;2023-07-29T14:37:17;2.03;;;1.10;;
73900;SDS011;62235;52.160;7.526;2023-07-29T14:39:43;2.00;;;1.00;;
73900;SDS011;62235;52.160;7.526;2023-07-29T14:42:08;2.10;;;1.30;;
73900;SDS011;62235;52.160;7.526;2023-07-29T14:44:33;3.00;;;1.10;;
73900;SDS011;62235;52.160;7.526;2023-07-29T14:46:59;1.33;;;0.70;;
73900;SDS011;62235;52.160;7.526;2023-07-29T14:49:24;1.45;;;0.82;;
73900;SDS011;62235;52.160;7.526;2023-07-29T14:51:49;1.55;;;1.20;;